sensor_id;sensor_type;location;lat;lon;timestamp;P1;durP1;ratioP1;P2;durP2;ratioP2
18818;SDS011;9537;45.594;9.294;2022-10-16T00:00:28;40.07;;;26.50;;
18818;SDS011;9537;45.594;9.294;2022-10-16T00:01:30;33.33;;;23.97;;
18818;SDS011;9537;45.594;9.294;2022-10-16T00:02:32;32.13;;;23.40;;
18818;SDS011;9537;45.594;9.294;2022-10-16T00:03:35;34.20;;;24.20;;
18818;SDS011;9537;45.594;9.294;2022-10-16T00:04:36;34.90;;;24.47;;
18818;SDS011;9537;45.594;9.294;2022-10-16T00:05:38;37.40;;;26.20;;
18818;SDS011;9537;45.594;9.294;2022-10-16T00:06:41;37.27;;;26.10;;
18818;SDS011;9537;45.594;9.294;2022-10-16T00:07:43;38.77;;;27.93;;
18818;SDS011;9537;45.594;9.294;2022-10-16T00:08:44;41.70;;;27.97;;
18818;SDS011;9537;45.594;9.294;2022-10-16T00:09:46;41.80;;;28.93;;
18818;SDS011;9537;45.594;9.294;2022-10-16T00:10:47;43.90;;;29.73;;
18818;SDS011;9537;45.594;9.294;2022-10-16T00:11:49;43.07;;;28.47;;
18818;SDS011;9537;45.594;9.294;2022-10-16T00:12:50;42.30;;;30.27;;
18818;SDS011;9537;45.594;9.294;2022-10-16T00:13:56;45.90;;;29.77;;
18818;SDS011;9537;45.594;9.294;2022-10-16T00:14:58;48.70;;;31.20;;
18818;SDS011;9537;45.594;9.294;2022-10-16T00:16:00;45.87;;;30.03;;
18818;SDS011;9537;45.594;9.294;2022-10-16T00:17:02;43.60;;;29.70;;
18818;SDS011;9537;45.594;9.294;2022-10-16T00:18:04;41.60;;;28.53;;
18818;SDS011;9537;45.594;9.294;2022-10-16T00:19:06;42.73;;;29.50;;
18818;SDS011;9537;45.594;9.294;2022-10-16T00:20:08;42.00;;;29.60;;
18818;SDS011;9537;45.594;9.294;2022-10-16T00:21:10;42.57;;;29.07;;
18818;SDS011;9537;45.594;9.294;2022-10-16T00:22:14;46.20;;;29.80;;
18818;SDS011;9537;45.594;9.294;2022-10-16T00:23:15;43.67;;;30.17;;
18818;SDS011;9537;45.594;9.294;2022-10-16T00:24:17;45.00;;;29.43;;
18818;SDS011;9537;45.594;9.294;2022-10-16T00:25:18;46.50;;;30.73;;
18818;SDS011;9537;45.594;9.294;2022-10-16T00:26:20;46.20;;;30.53;;
18818;SDS011;9537;45.594;9.294;2022-10-16T00:27:21;45.33;;;31.47;;
18818;SDS011;9537;45.594;9.294;2022-10-16T00:28:23;43.50;;;30.00;;
18818;SDS011;9537;45.594;9.294;2022-10-16T00:29:25;42.80;;;30.57;;
18818;SDS011;9537;45.594;9.294;2022-10-16T00:30:27;46.83;;;30.90;;
18818;SDS011;9537;45.594;9.294;2022-10-16T00:31:29;45.87;;;30.27;;
18818;SDS011;9537;45.594;9.294;2022-10-16T00:32:32;44.43;;;29.50;;
18818;SDS011;9537;45.594;9.294;2022-10-16T00:33:33;42.93;;;28.90;;
18818;SDS011;9537;45.594;9.294;2022-10-16T00:34:36;46.27;;;29.90;;
18818;SDS011;9537;45.594;9.294;2022-10-16T00:35:37;44.83;;;30.57;;
18818;SDS011;9537;45.594;9.294;2022-10-16T00:36:39;46.53;;;30.23;;
18818;SDS011;9537;45.594;9.294;2022-10-16T00:37:40;50.17;;;32.47;;
18818;SDS011;9537;45.594;9.294;2022-10-16T00:38:42;51.47;;;33.43;;
18818;SDS011;9537;45.594;9.294;2022-10-16T00:39:44;49.03;;;33.60;;
18818;SDS011;9537;45.594;9.294;2022-10-16T00:40:46;55.00;;;33.73;;
18818;SDS011;9537;45.594;9.294;2022-10-16T00:41:47;59.10;;;35.20;;
18818;SDS011;9537;45.594;9.294;2022-10-16T00:42:49;45.47;;;30.93;;
18818;SDS011;9537;45.594;9.294;2022-10-16T00:43:51;45.90;;;32.60;;
18818;SDS011;9537;45.594;9.294;2022-10-16T00:44:56;46.63;;;31.37;;
18818;SDS011;9537;45.594;9.294;2022-10-16T00:45:58;43.03;;;30.30;;
18818;SDS011;9537;45.594;9.294;2022-10-16T00:47:00;44.70;;;30.53;;
18818;SDS011;9537;45.594;9.294;2022-10-16T00:48:01;42.47;;;29.73;;
18818;SDS011;9537;45.594;9.294;2022-10-16T00:49:05;46.33;;;30.20;;
18818;SDS011;9537;45.594;9.294;2022-10-16T00:50:09;46.03;;;32.63;;
18818;SDS011;9537;45.594;9.294;2022-10-16T00:51:14;47.83;;;31.70;;
18818;SDS011;9537;45.594;9.294;2022-10-16T00:52:15;53.73;;;33.43;;
18818;SDS011;9537;45.594;9.294;2022-10-16T00:53:18;50.70;;;31.90;;
18818;SDS011;9537;45.594;9.294;2022-10-16T00:54:20;47.83;;;30.87;;
18818;SDS011;9537;45.594;9.294;2022-10-16T00:55:25;46.47;;;29.87;;
18818;SDS011;9537;45.594;9.294;2022-10-16T00:56:28;47.03;;;32.17;;
18818;SDS011;9537;45.594;9.294;2022-10-16T00:57:30;49.07;;;33.57;;
18818;SDS011;9537;45.594;9.294;2022-10-16T00:58:31;48.77;;;32.70;;
18818;SDS011;9537;45.594;9.294;2022-10-16T00:59:34;50.70;;;33.60;;
18818;SDS011;9537;45.594;9.294;2022-10-16T01:00:38;49.07;;;32.43;;
18818;SDS011;9537;45.594;9.294;2022-10-16T01:01:40;50.30;;;31.47;;
18818;SDS011;9537;45.594;9.294;2022-10-16T01:02:41;47.83;;;32.43;;
18818;SDS011;9537;45.594;9.294;2022-10-16T01:03:43;49.83;;;32.50;;
18818;SDS011;9537;45.594;9.294;2022-10-16T01:04:46;48.33;;;32.33;;
18818;SDS011;9537;45.594;9.294;2022-10-16T01:05:53;50.20;;;33.40;;
18818;SDS011;9537;45.594;9.294;2022-10-16T01:07:04;49.53;;;31.60;;
18818;SDS011;9537;45.594;9.294;2022-10-16T01:08:13;44.07;;;30.27;;
18818;SDS011;9537;45.594;9.294;2022-10-16T01:09:20;46.10;;;30.43;;
18818;SDS011;9537;45.594;9.294;2022-10-16T01:10:31;45.33;;;29.40;;
18818;SDS011;9537;45.594;9.294;2022-10-16T01:11:38;40.17;;;28.90;;
18818;SDS011;9537;45.594;9.294;2022-10-16T01:12:51;44.73;;;28.77;;
18818;SDS011;9537;45.594;9.294;2022-10-16T01:13:59;44.50;;;29.50;;
18818;SDS011;9537;45.594;9.294;2022-10-16T01:15:08;49.03;;;29.67;;
18818;SDS011;9537;45.594;9.294;2022-10-16T01:16:17;44.13;;;28.63;;
18818;SDS011;9537;45.594;9.294;2022-10-16T01:17:32;44.63;;;30.83;;
18818;SDS011;9537;45.594;9.294;2022-10-16T01:18:41;47.23;;;31.37;;
18818;SDS011;9537;45.594;9.294;2022-10-16T01:19:56;45.97;;;30.77;;
18818;SDS011;9537;45.594;9.294;2022-10-16T01:21:05;46.83;;;30.13;;
18818;SDS011;9537;45.594;9.294;2022-10-16T01:22:11;40.90;;;27.90;;
18818;SDS011;9537;45.594;9.294;2022-10-16T01:23:16;40.70;;;27.97;;
18818;SDS011;9537;45.594;9.294;2022-10-16T01:24:27;38.50;;;27.57;;
18818;SDS011;9537;45.594;9.294;2022-10-16T01:25:39;42.17;;;28.60;;
18818;SDS011;9537;45.594;9.294;2022-10-16T01:27:08;39.13;;;27.17;;
18818;SDS011;9537;45.594;9.294;2022-10-16T01:28:12;39.87;;;26.23;;
18818;SDS011;9537;45.594;9.294;2022-10-16T01:29:16;48.80;;;29.03;;
18818;SDS011;9537;45.594;9.294;2022-10-16T01:30:23;43.53;;;29.80;;
18818;SDS011;9537;45.594;9.294;2022-10-16T01:31:29;42.90;;;30.37;;
18818;SDS011;9537;45.594;9.294;2022-10-16T01:32:36;45.27;;;30.10;;
18818;SDS011;9537;45.594;9.294;2022-10-16T01:33:42;43.00;;;29.33;;
18818;SDS011;9537;45.594;9.294;2022-10-16T01:34:49;48.47;;;31.83;;
18818;SDS011;9537;45.594;9.294;2022-10-16T01:35:54;46.57;;;31.07;;
18818;SDS011;9537;45.594;9.294;2022-10-16T01:37:02;43.60;;;29.07;;
18818;SDS011;9537;45.594;9.294;2022-10-16T01:38:09;44.80;;;29.00;;
18818;SDS011;9537;45.594;9.294;2022-10-16T01:39:16;43.20;;;28.57;;
18818;SDS011;9537;45.594;9.294;2022-10-16T01:40:23;41.77;;;28.17;;
18818;SDS011;9537;45.594;9.294;2022-10-16T01:41:29;38.93;;;27.53;;
18818;SDS011;9537;45.594;9.294;2022-10-16T01:42:36;43.77;;;28.53;;
18818;SDS011;9537;45.594;9.294;2022-10-16T01:43:43;42.20;;;28.90;;
18818;SDS011;9537;45.594;9.294;2022-10-16T01:44:47;47.07;;;29.80;;
18818;SDS011;9537;45.594;9.294;2022-10-16T01:45:52;41.63;;;30.37;;
18818;SDS011;9537;45.594;9.294;2022-10-16T01:46:54;43.03;;;29.37;;
18818;SDS011;9537;45.594;9.294;2022-10-16T01:47:57;40.23;;;28.30;;
18818;SDS011;9537;45.594;9.294;2022-10-16T01:49:01;45.37;;;28.70;;
18818;SDS011;9537;45.594;9.294;2022-10-16T01:50:04;45.63;;;32.00;;
18818;SDS011;9537;45.594;9.294;2022-10-16T01:51:09;41.03;;;29.57;;
18818;SDS011;9537;45.594;9.294;2022-10-16T01:52:15;49.93;;;31.57;;
18818;SDS011;9537;45.594;9.294;2022-10-16T01:53:20;44.10;;;29.60;;
18818;SDS011;9537;45.594;9.294;2022-10-16T01:54:24;49.53;;;32.30;;
18818;SDS011;9537;45.594;9.294;2022-10-16T01:55:28;46.83;;;31.00;;
18818;SDS011;9537;45.594;9.294;2022-10-16T01:56:35;47.80;;;32.73;;
18818;SDS011;9537;45.594;9.294;2022-10-16T01:57:41;48.70;;;31.30;;
18818;SDS011;9537;45.594;9.294;2022-10-16T01:58:48;45.03;;;30.13;;
18818;SDS011;9537;45.594;9.294;2022-10-16T01:59:54;50.33;;;32.17;;
18818;SDS011;9537;45.594;9.294;2022-10-16T02:00:59;45.23;;;30.80;;
18818;SDS011;9537;45.594;9.294;2022-10-16T02:02:04;45.37;;;29.90;;
18818;SDS011;9537;45.594;9.294;2022-10-16T02:03:09;45.47;;;29.40;;
18818;SDS011;9537;45.594;9.294;2022-10-16T02:04:15;44.93;;;29.00;;
18818;SDS011;9537;45.594;9.294;2022-10-16T02:05:21;43.63;;;30.40;;
18818;SDS011;9537;45.594;9.294;2022-10-16T02:06:27;42.57;;;28.03;;
18818;SDS011;9537;45.594;9.294;2022-10-16T02:07:30;42.73;;;28.33;;
18818;SDS011;9537;45.594;9.294;2022-10-16T02:08:31;41.57;;;29.17;;
18818;SDS011;9537;45.594;9.294;2022-10-16T02:09:33;39.83;;;27.50;;
18818;SDS011;9537;45.594;9.294;2022-10-16T02:10:35;39.73;;;28.23;;
18818;SDS011;9537;45.594;9.294;2022-10-16T02:11:38;46.47;;;30.30;;
18818;SDS011;9537;45.594;9.294;2022-10-16T02:12:42;39.60;;;28.00;;
18818;SDS011;9537;45.594;9.294;2022-10-16T02:13:50;43.73;;;29.37;;
18818;SDS011;9537;45.594;9.294;2022-10-16T02:14:56;42.73;;;28.57;;
18818;SDS011;9537;45.594;9.294;2022-10-16T02:15:58;47.60;;;30.07;;
18818;SDS011;9537;45.594;9.294;2022-10-16T02:16:59;48.40;;;30.87;;
18818;SDS011;9537;45.594;9.294;2022-10-16T02:18:01;46.00;;;30.97;;
18818;SDS011;9537;45.594;9.294;2022-10-16T02:19:03;44.57;;;31.33;;
18818;SDS011;9537;45.594;9.294;2022-10-16T02:20:06;50.20;;;33.10;;
18818;SDS011;9537;45.594;9.294;2022-10-16T02:21:10;47.27;;;31.60;;
18818;SDS011;9537;45.594;9.294;2022-10-16T02:22:20;47.53;;;31.37;;
18818;SDS011;9537;45.594;9.294;2022-10-16T02:23:29;48.40;;;32.07;;
18818;SDS011;9537;45.594;9.294;2022-10-16T02:24:38;55.23;;;33.40;;
18818;SDS011;9537;45.594;9.294;2022-10-16T02:25:43;53.23;;;33.27;;
18818;SDS011;9537;45.594;9.294;2022-10-16T02:26:49;54.63;;;35.03;;
18818;SDS011;9537;45.594;9.294;2022-10-16T02:28:01;47.97;;;32.27;;
18818;SDS011;9537;45.594;9.294;2022-10-16T02:29:08;53.03;;;33.43;;
18818;SDS011;9537;45.594;9.294;2022-10-16T02:30:13;48.53;;;32.30;;
18818;SDS011;9537;45.594;9.294;2022-10-16T02:31:22;55.57;;;35.20;;
18818;SDS011;9537;45.594;9.294;2022-10-16T02:32:28;46.83;;;31.23;;
18818;SDS011;9537;45.594;9.294;2022-10-16T02:33:33;53.53;;;34.00;;
18818;SDS011;9537;45.594;9.294;2022-10-16T02:34:35;51.43;;;33.00;;
18818;SDS011;9537;45.594;9.294;2022-10-16T02:35:39;48.67;;;32.33;;
18818;SDS011;9537;45.594;9.294;2022-10-16T02:36:41;52.30;;;34.10;;
18818;SDS011;9537;45.594;9.294;2022-10-16T02:37:45;52.57;;;33.43;;
18818;SDS011;9537;45.594;9.294;2022-10-16T02:38:47;49.87;;;33.63;;
18818;SDS011;9537;45.594;9.294;2022-10-16T02:39:49;52.63;;;35.13;;
18818;SDS011;9537;45.594;9.294;2022-10-16T02:40:50;49.77;;;32.60;;
18818;SDS011;9537;45.594;9.294;2022-10-16T02:41:52;51.53;;;31.67;;
18818;SDS011;9537;45.594;9.294;2022-10-16T02:42:54;52.27;;;31.90;;
18818;SDS011;9537;45.594;9.294;2022-10-16T02:43:58;52.80;;;32.63;;
18818;SDS011;9537;45.594;9.294;2022-10-16T02:44:59;51.80;;;32.80;;
18818;SDS011;9537;45.594;9.294;2022-10-16T02:46:01;43.87;;;30.67;;
18818;SDS011;9537;45.594;9.294;2022-10-16T02:47:03;48.37;;;30.63;;
18818;SDS011;9537;45.594;9.294;2022-10-16T02:48:05;50.40;;;31.57;;
18818;SDS011;9537;45.594;9.294;2022-10-16T02:49:06;45.90;;;31.10;;
18818;SDS011;9537;45.594;9.294;2022-10-16T02:50:10;48.73;;;32.00;;
18818;SDS011;9537;45.594;9.294;2022-10-16T02:51:11;51.33;;;33.03;;
18818;SDS011;9537;45.594;9.294;2022-10-16T02:52:13;49.47;;;33.33;;
18818;SDS011;9537;45.594;9.294;2022-10-16T02:53:14;48.60;;;32.07;;
18818;SDS011;9537;45.594;9.294;2022-10-16T02:54:16;49.53;;;32.77;;
18818;SDS011;9537;45.594;9.294;2022-10-16T02:55:17;47.53;;;32.40;;
18818;SDS011;9537;45.594;9.294;2022-10-16T02:56:19;51.03;;;35.07;;
18818;SDS011;9537;45.594;9.294;2022-10-16T02:57:20;50.10;;;33.63;;
18818;SDS011;9537;45.594;9.294;2022-10-16T02:58:23;50.67;;;33.00;;
18818;SDS011;9537;45.594;9.294;2022-10-16T02:59:25;52.83;;;33.60;;
18818;SDS011;9537;45.594;9.294;2022-10-16T03:00:27;48.43;;;32.87;;
18818;SDS011;9537;45.594;9.294;2022-10-16T03:01:29;49.07;;;32.37;;
18818;SDS011;9537;45.594;9.294;2022-10-16T03:02:30;43.63;;;30.70;;
18818;SDS011;9537;45.594;9.294;2022-10-16T03:03:32;49.20;;;31.67;;
18818;SDS011;9537;45.594;9.294;2022-10-16T03:04:33;48.80;;;31.37;;
18818;SDS011;9537;45.594;9.294;2022-10-16T03:05:35;47.17;;;30.63;;
18818;SDS011;9537;45.594;9.294;2022-10-16T03:06:37;47.10;;;30.90;;
18818;SDS011;9537;45.594;9.294;2022-10-16T03:07:39;44.77;;;30.97;;
18818;SDS011;9537;45.594;9.294;2022-10-16T03:08:40;46.60;;;30.33;;
18818;SDS011;9537;45.594;9.294;2022-10-16T03:09:42;47.67;;;31.80;;
18818;SDS011;9537;45.594;9.294;2022-10-16T03:10:43;50.07;;;32.23;;
18818;SDS011;9537;45.594;9.294;2022-10-16T03:11:45;46.47;;;31.33;;
18818;SDS011;9537;45.594;9.294;2022-10-16T03:12:46;48.67;;;31.13;;
18818;SDS011;9537;45.594;9.294;2022-10-16T03:13:48;44.93;;;31.10;;
18818;SDS011;9537;45.594;9.294;2022-10-16T03:14:51;44.93;;;32.00;;
18818;SDS011;9537;45.594;9.294;2022-10-16T03:15:53;48.30;;;31.63;;
18818;SDS011;9537;45.594;9.294;2022-10-16T03:16:54;46.33;;;32.53;;
18818;SDS011;9537;45.594;9.294;2022-10-16T03:17:57;50.10;;;33.33;;
18818;SDS011;9537;45.594;9.294;2022-10-16T03:18:58;51.70;;;33.37;;
18818;SDS011;9537;45.594;9.294;2022-10-16T03:20:01;47.73;;;32.63;;
18818;SDS011;9537;45.594;9.294;2022-10-16T03:21:02;53.80;;;34.00;;
18818;SDS011;9537;45.594;9.294;2022-10-16T03:22:04;45.80;;;31.57;;
18818;SDS011;9537;45.594;9.294;2022-10-16T03:23:05;47.80;;;33.13;;
18818;SDS011;9537;45.594;9.294;2022-10-16T03:24:08;46.07;;;32.93;;
18818;SDS011;9537;45.594;9.294;2022-10-16T03:25:09;44.80;;;31.43;;
18818;SDS011;9537;45.594;9.294;2022-10-16T03:26:11;51.53;;;32.63;;
18818;SDS011;9537;45.594;9.294;2022-10-16T03:27:12;52.93;;;32.73;;
18818;SDS011;9537;45.594;9.294;2022-10-16T03:28:14;43.93;;;31.20;;
18818;SDS011;9537;45.594;9.294;2022-10-16T03:29:15;46.93;;;31.60;;
18818;SDS011;9537;45.594;9.294;2022-10-16T03:30:19;48.07;;;31.90;;
18818;SDS011;9537;45.594;9.294;2022-10-16T03:31:20;49.73;;;33.20;;
18818;SDS011;9537;45.594;9.294;2022-10-16T03:32:25;47.10;;;31.17;;
18818;SDS011;9537;45.594;9.294;2022-10-16T03:33:26;50.20;;;32.73;;
18818;SDS011;9537;45.594;9.294;2022-10-16T03:34:28;48.07;;;32.53;;
18818;SDS011;9537;45.594;9.294;2022-10-16T03:35:29;45.47;;;30.40;;
18818;SDS011;9537;45.594;9.294;2022-10-16T03:36:35;46.97;;;31.63;;
18818;SDS011;9537;45.594;9.294;2022-10-16T03:37:37;45.70;;;31.13;;
18818;SDS011;9537;45.594;9.294;2022-10-16T03:38:38;56.53;;;33.53;;
18818;SDS011;9537;45.594;9.294;2022-10-16T03:39:40;51.10;;;34.47;;
18818;SDS011;9537;45.594;9.294;2022-10-16T03:40:41;56.40;;;35.77;;
18818;SDS011;9537;45.594;9.294;2022-10-16T03:41:43;51.93;;;34.37;;
18818;SDS011;9537;45.594;9.294;2022-10-16T03:42:44;48.73;;;32.67;;
18818;SDS011;9537;45.594;9.294;2022-10-16T03:43:46;53.00;;;33.13;;
18818;SDS011;9537;45.594;9.294;2022-10-16T03:44:47;50.63;;;33.33;;
18818;SDS011;9537;45.594;9.294;2022-10-16T03:45:51;49.63;;;31.10;;
18818;SDS011;9537;45.594;9.294;2022-10-16T03:46:52;49.20;;;32.93;;
18818;SDS011;9537;45.594;9.294;2022-10-16T03:47:54;46.63;;;31.53;;
18818;SDS011;9537;45.594;9.294;2022-10-16T03:48:56;47.03;;;30.40;;
18818;SDS011;9537;45.594;9.294;2022-10-16T03:49:57;51.57;;;33.63;;
18818;SDS011;9537;45.594;9.294;2022-10-16T03:50:59;55.23;;;35.20;;
18818;SDS011;9537;45.594;9.294;2022-10-16T03:52:00;49.67;;;32.60;;
18818;SDS011;9537;45.594;9.294;2022-10-16T03:53:03;50.77;;;32.60;;
18818;SDS011;9537;45.594;9.294;2022-10-16T03:54:04;53.87;;;33.20;;
18818;SDS011;9537;45.594;9.294;2022-10-16T03:55:06;50.53;;;33.83;;
18818;SDS011;9537;45.594;9.294;2022-10-16T03:56:08;48.60;;;32.70;;
18818;SDS011;9537;45.594;9.294;2022-10-16T03:57:10;50.60;;;33.47;;
18818;SDS011;9537;45.594;9.294;2022-10-16T03:58:13;51.30;;;31.80;;
18818;SDS011;9537;45.594;9.294;2022-10-16T03:59:15;48.27;;;33.03;;
18818;SDS011;9537;45.594;9.294;2022-10-16T04:00:16;50.67;;;32.20;;
18818;SDS011;9537;45.594;9.294;2022-10-16T04:01:20;45.63;;;30.93;;
18818;SDS011;9537;45.594;9.294;2022-10-16T04:02:21;49.40;;;30.90;;
18818;SDS011;9537;45.594;9.294;2022-10-16T04:03:24;48.77;;;32.30;;
18818;SDS011;9537;45.594;9.294;2022-10-16T04:04:25;47.90;;;33.00;;
18818;SDS011;9537;45.594;9.294;2022-10-16T04:05:27;49.40;;;33.13;;
18818;SDS011;9537;45.594;9.294;2022-10-16T04:06:28;46.57;;;32.40;;
18818;SDS011;9537;45.594;9.294;2022-10-16T04:07:30;55.47;;;36.10;;
18818;SDS011;9537;45.594;9.294;2022-10-16T04:08:31;56.10;;;35.57;;
18818;SDS011;9537;45.594;9.294;2022-10-16T04:09:35;51.50;;;34.60;;
18818;SDS011;9537;45.594;9.294;2022-10-16T04:10:36;62.17;;;35.90;;
18818;SDS011;9537;45.594;9.294;2022-10-16T04:11:38;57.90;;;35.53;;
18818;SDS011;9537;45.594;9.294;2022-10-16T04:12:39;53.37;;;35.53;;
18818;SDS011;9537;45.594;9.294;2022-10-16T04:13:41;52.90;;;34.47;;
18818;SDS011;9537;45.594;9.294;2022-10-16T04:14:42;51.20;;;34.40;;
18818;SDS011;9537;45.594;9.294;2022-10-16T04:15:44;52.67;;;33.77;;
18818;SDS011;9537;45.594;9.294;2022-10-16T04:16:47;50.70;;;33.00;;
18818;SDS011;9537;45.594;9.294;2022-10-16T04:17:49;52.30;;;33.43;;
18818;SDS011;9537;45.594;9.294;2022-10-16T04:18:51;51.73;;;33.67;;
18818;SDS011;9537;45.594;9.294;2022-10-16T04:19:53;51.47;;;32.67;;
18818;SDS011;9537;45.594;9.294;2022-10-16T04:20:54;47.10;;;33.00;;
18818;SDS011;9537;45.594;9.294;2022-10-16T04:21:56;51.53;;;33.73;;
18818;SDS011;9537;45.594;9.294;2022-10-16T04:22:57;56.80;;;35.13;;
18818;SDS011;9537;45.594;9.294;2022-10-16T04:23:59;53.20;;;34.07;;
18818;SDS011;9537;45.594;9.294;2022-10-16T04:25:00;51.30;;;33.83;;
18818;SDS011;9537;45.594;9.294;2022-10-16T04:26:02;55.63;;;33.50;;
18818;SDS011;9537;45.594;9.294;2022-10-16T04:27:04;51.67;;;32.40;;
18818;SDS011;9537;45.594;9.294;2022-10-16T04:28:05;46.67;;;32.47;;
18818;SDS011;9537;45.594;9.294;2022-10-16T04:29:06;45.17;;;30.73;;
18818;SDS011;9537;45.594;9.294;2022-10-16T04:30:09;48.73;;;34.10;;
18818;SDS011;9537;45.594;9.294;2022-10-16T04:31:10;50.20;;;33.37;;
18818;SDS011;9537;45.594;9.294;2022-10-16T04:32:14;48.53;;;32.57;;
18818;SDS011;9537;45.594;9.294;2022-10-16T04:33:16;47.63;;;32.23;;
18818;SDS011;9537;45.594;9.294;2022-10-16T04:34:18;45.13;;;31.57;;
18818;SDS011;9537;45.594;9.294;2022-10-16T04:35:19;46.80;;;32.43;;
18818;SDS011;9537;45.594;9.294;2022-10-16T04:36:22;52.23;;;33.07;;
18818;SDS011;9537;45.594;9.294;2022-10-16T04:37:23;46.47;;;32.37;;
18818;SDS011;9537;45.594;9.294;2022-10-16T04:38:26;48.97;;;31.70;;
18818;SDS011;9537;45.594;9.294;2022-10-16T04:39:27;48.67;;;32.90;;
18818;SDS011;9537;45.594;9.294;2022-10-16T04:40:29;51.70;;;32.37;;
18818;SDS011;9537;45.594;9.294;2022-10-16T04:41:33;50.37;;;33.40;;
18818;SDS011;9537;45.594;9.294;2022-10-16T04:42:34;48.67;;;32.50;;
18818;SDS011;9537;45.594;9.294;2022-10-16T04:43:36;50.10;;;33.10;;
18818;SDS011;9537;45.594;9.294;2022-10-16T04:44:37;49.03;;;31.87;;
18818;SDS011;9537;45.594;9.294;2022-10-16T04:45:39;50.00;;;32.50;;
18818;SDS011;9537;45.594;9.294;2022-10-16T04:46:40;46.77;;;32.50;;
18818;SDS011;9537;45.594;9.294;2022-10-16T04:47:44;50.53;;;33.80;;
18818;SDS011;9537;45.594;9.294;2022-10-16T04:48:45;48.63;;;31.47;;
18818;SDS011;9537;45.594;9.294;2022-10-16T04:49:47;46.70;;;32.03;;
18818;SDS011;9537;45.594;9.294;2022-10-16T04:50:48;49.07;;;32.33;;
18818;SDS011;9537;45.594;9.294;2022-10-16T04:51:51;50.77;;;33.03;;
18818;SDS011;9537;45.594;9.294;2022-10-16T04:52:52;49.03;;;32.40;;
18818;SDS011;9537;45.594;9.294;2022-10-16T04:53:54;48.37;;;32.37;;
18818;SDS011;9537;45.594;9.294;2022-10-16T04:54:55;49.97;;;33.03;;
18818;SDS011;9537;45.594;9.294;2022-10-16T04:56:01;51.10;;;32.40;;
18818;SDS011;9537;45.594;9.294;2022-10-16T04:57:02;51.60;;;34.37;;
18818;SDS011;9537;45.594;9.294;2022-10-16T04:58:05;51.63;;;33.00;;
18818;SDS011;9537;45.594;9.294;2022-10-16T04:59:06;46.53;;;32.07;;
18818;SDS011;9537;45.594;9.294;2022-10-16T05:00:08;46.47;;;31.37;;
18818;SDS011;9537;45.594;9.294;2022-10-16T05:01:10;52.93;;;33.17;;
18818;SDS011;9537;45.594;9.294;2022-10-16T05:02:12;46.97;;;32.27;;
18818;SDS011;9537;45.594;9.294;2022-10-16T05:03:16;44.50;;;30.87;;
18818;SDS011;9537;45.594;9.294;2022-10-16T05:04:19;49.57;;;32.10;;
18818;SDS011;9537;45.594;9.294;2022-10-16T05:05:20;48.50;;;31.53;;
18818;SDS011;9537;45.594;9.294;2022-10-16T05:06:23;49.43;;;32.77;;
18818;SDS011;9537;45.594;9.294;2022-10-16T05:07:24;48.77;;;32.73;;
18818;SDS011;9537;45.594;9.294;2022-10-16T05:08:26;47.13;;;31.70;;
18818;SDS011;9537;45.594;9.294;2022-10-16T05:09:27;46.30;;;30.50;;
18818;SDS011;9537;45.594;9.294;2022-10-16T05:10:29;49.50;;;32.03;;
18818;SDS011;9537;45.594;9.294;2022-10-16T05:11:30;43.53;;;29.40;;
18818;SDS011;9537;45.594;9.294;2022-10-16T05:12:33;49.13;;;31.17;;
18818;SDS011;9537;45.594;9.294;2022-10-16T05:13:34;45.57;;;31.13;;
18818;SDS011;9537;45.594;9.294;2022-10-16T05:14:36;46.90;;;32.20;;
18818;SDS011;9537;45.594;9.294;2022-10-16T05:15:37;48.70;;;33.67;;
18818;SDS011;9537;45.594;9.294;2022-10-16T05:16:39;46.57;;;32.10;;
18818;SDS011;9537;45.594;9.294;2022-10-16T05:17:40;49.37;;;33.67;;
18818;SDS011;9537;45.594;9.294;2022-10-16T05:18:44;48.63;;;34.23;;
18818;SDS011;9537;45.594;9.294;2022-10-16T05:19:45;49.40;;;33.00;;
18818;SDS011;9537;45.594;9.294;2022-10-16T05:20:47;47.90;;;32.80;;
18818;SDS011;9537;45.594;9.294;2022-10-16T05:21:48;48.93;;;31.97;;
18818;SDS011;9537;45.594;9.294;2022-10-16T05:22:50;44.80;;;30.07;;
18818;SDS011;9537;45.594;9.294;2022-10-16T05:23:52;49.13;;;31.63;;
18818;SDS011;9537;45.594;9.294;2022-10-16T05:24:55;48.40;;;31.57;;
18818;SDS011;9537;45.594;9.294;2022-10-16T05:25:56;46.17;;;31.17;;
18818;SDS011;9537;45.594;9.294;2022-10-16T05:26:59;46.53;;;30.03;;
18818;SDS011;9537;45.594;9.294;2022-10-16T05:28:01;43.60;;;31.13;;
18818;SDS011;9537;45.594;9.294;2022-10-16T05:29:03;48.77;;;30.67;;
18818;SDS011;9537;45.594;9.294;2022-10-16T05:30:04;51.47;;;33.30;;
18818;SDS011;9537;45.594;9.294;2022-10-16T05:31:08;47.13;;;31.57;;
18818;SDS011;9537;45.594;9.294;2022-10-16T05:32:10;49.40;;;32.17;;
18818;SDS011;9537;45.594;9.294;2022-10-16T05:33:12;46.73;;;30.83;;
18818;SDS011;9537;45.594;9.294;2022-10-16T05:34:15;45.50;;;29.20;;
18818;SDS011;9537;45.594;9.294;2022-10-16T05:35:17;43.67;;;30.90;;
18818;SDS011;9537;45.594;9.294;2022-10-16T05:36:19;44.93;;;30.23;;
18818;SDS011;9537;45.594;9.294;2022-10-16T05:37:21;47.63;;;32.27;;
18818;SDS011;9537;45.594;9.294;2022-10-16T05:38:22;42.33;;;30.20;;
18818;SDS011;9537;45.594;9.294;2022-10-16T05:39:24;46.73;;;31.03;;
18818;SDS011;9537;45.594;9.294;2022-10-16T05:40:25;46.00;;;31.00;;
18818;SDS011;9537;45.594;9.294;2022-10-16T05:41:28;44.53;;;31.87;;
18818;SDS011;9537;45.594;9.294;2022-10-16T05:42:29;47.07;;;31.87;;
18818;SDS011;9537;45.594;9.294;2022-10-16T05:43:31;45.00;;;30.47;;
18818;SDS011;9537;45.594;9.294;2022-10-16T05:44:32;45.07;;;31.23;;
18818;SDS011;9537;45.594;9.294;2022-10-16T05:45:35;45.50;;;32.27;;
18818;SDS011;9537;45.594;9.294;2022-10-16T05:46:36;43.13;;;28.67;;
18818;SDS011;9537;45.594;9.294;2022-10-16T05:47:38;42.70;;;29.20;;
18818;SDS011;9537;45.594;9.294;2022-10-16T05:48:40;40.40;;;28.40;;
18818;SDS011;9537;45.594;9.294;2022-10-16T05:49:43;43.87;;;28.53;;
18818;SDS011;9537;45.594;9.294;2022-10-16T05:50:44;43.50;;;29.20;;
18818;SDS011;9537;45.594;9.294;2022-10-16T05:51:46;43.13;;;30.60;;
18818;SDS011;9537;45.594;9.294;2022-10-16T05:52:47;42.80;;;30.37;;
18818;SDS011;9537;45.594;9.294;2022-10-16T05:53:50;49.77;;;30.33;;
18818;SDS011;9537;45.594;9.294;2022-10-16T05:54:51;44.63;;;30.93;;
18818;SDS011;9537;45.594;9.294;2022-10-16T05:55:53;44.07;;;30.13;;
18818;SDS011;9537;45.594;9.294;2022-10-16T05:56:54;48.50;;;31.07;;
18818;SDS011;9537;45.594;9.294;2022-10-16T05:57:56;47.43;;;30.07;;
18818;SDS011;9537;45.594;9.294;2022-10-16T05:58:57;45.57;;;31.13;;
18818;SDS011;9537;45.594;9.294;2022-10-16T05:59:59;47.03;;;32.40;;
18818;SDS011;9537;45.594;9.294;2022-10-16T06:01:01;46.70;;;31.93;;
18818;SDS011;9537;45.594;9.294;2022-10-16T06:02:05;47.43;;;32.23;;
18818;SDS011;9537;45.594;9.294;2022-10-16T06:03:06;45.97;;;30.87;;
18818;SDS011;9537;45.594;9.294;2022-10-16T06:04:08;46.77;;;29.57;;
18818;SDS011;9537;45.594;9.294;2022-10-16T06:05:11;47.97;;;30.37;;
18818;SDS011;9537;45.594;9.294;2022-10-16T06:06:14;46.43;;;30.90;;
18818;SDS011;9537;45.594;9.294;2022-10-16T06:07:17;44.07;;;30.03;;
18818;SDS011;9537;45.594;9.294;2022-10-16T06:08:20;44.77;;;30.10;;
18818;SDS011;9537;45.594;9.294;2022-10-16T06:09:23;44.00;;;28.53;;
18818;SDS011;9537;45.594;9.294;2022-10-16T06:10:24;43.33;;;30.43;;
18818;SDS011;9537;45.594;9.294;2022-10-16T06:11:26;46.87;;;31.00;;
18818;SDS011;9537;45.594;9.294;2022-10-16T06:12:29;45.80;;;31.73;;
18818;SDS011;9537;45.594;9.294;2022-10-16T06:13:30;45.10;;;31.50;;